createdAt,value
2022-08-12T00:33:59.052Z,95409.79
2022-08-12T00:36:50.094Z,95439.22
2022-08-12T00:39:39.744Z,95433.48
2022-08-12T00:46:09.260Z,95428.48
2022-08-12T00:48:39.688Z,95432.11
2022-08-12T00:51:10.488Z,95429.26
2022-08-12T00:53:39.995Z,95431.20
2022-08-12T00:56:10.959Z,95428.05
2022-08-12T00:58:56.865Z,95423.81
2022-08-12T01:01:27.154Z,95428.23
2022-08-12T01:04:18.328Z,95430.38
2022-08-12T01:23:42.349Z,95370.05
2022-08-12T01:26:14.002Z,95440.44
2022-08-12T01:28:47.004Z,95444.48
2022-08-12T01:31:49.155Z,95446.43
2022-08-12T01:35:05.808Z,95448.90
2022-08-12T01:41:53.766Z,95441.88
2022-08-12T01:44:25.780Z,95440.61
2022-08-12T01:51:05.579Z,95444.36
2022-08-12T01:53:52.956Z,95446.88
2022-08-12T01:57:13.690Z,95444.86
2022-08-12T01:59:52.119Z,95445.28
2022-08-12T02:02:47.009Z,95446.87
2022-08-12T02:05:44.777Z,95441.64
2022-08-12T03:01:22.921Z,95440.02
2022-08-12T07:20:55.007Z,95459.66
2022-08-12T08:16:21.266Z,95441.63
2022-08-12T08:22:58.010Z,95436.47
2022-08-12T09:52:05.416Z,95386.03
2022-08-12T09:54:50.307Z,95386.78
2022-08-12T09:58:44.902Z,95382.93
2022-08-12T10:34:38.250Z,95341.03
2022-08-12T10:37:22.598Z,95340.89
2022-08-12T10:39:59.234Z,95333.06
2022-08-12T10:43:00.308Z,95344.72
2022-08-12T10:45:30.556Z,95333.89
2022-08-12T10:48:07.610Z,95330.88
2022-08-12T10:51:01.044Z,95332.51
2022-08-12T10:53:00.486Z,95329.61
2022-08-12T10:55:32.200Z,95328.89
2022-08-12T10:58:27.457Z,95332.61
2022-08-12T11:00:54.899Z,95329.11
2022-08-12T11:04:28.594Z,95322.65
2022-08-12T11:07:02.815Z,95313.48
2022-08-12T11:08:38.753Z,95320.04
2022-08-12T11:14:00.003Z,95313.73
2022-08-12T11:17:34.242Z,95306.06
2022-08-12T12:26:06.499Z,95285.55
2022-08-12T12:29:07.008Z,95275.48
2022-08-12T12:30:54.631Z,95276.25
2022-08-12T12:37:08.262Z,95261.59
2022-08-12T12:39:55.102Z,95275.52
2022-08-12T12:42:44.037Z,95268.77
2022-08-12T12:44:50.834Z,95268.17
2022-08-12T12:47:28.939Z,95267.06
2022-08-12T12:49:58.227Z,95254.62
2022-08-12T12:52:31.823Z,95254.27
2022-08-12T12:58:31.245Z,95253.52
2022-08-12T13:01:04.702Z,95242.34
2022-08-12T13:03:48.774Z,95240.16
2022-08-12T13:12:51.750Z,95230.22
2022-08-12T13:22:20.717Z,95233.95
2022-08-12T13:25:36.129Z,95227.86
2022-08-12T13:28:05.853Z,95225.27
2022-08-12T13:30:40.714Z,95236.87
2022-08-12T13:57:46.851Z,95243.61
2022-08-12T14:03:51.341Z,95241.22
2022-08-12T14:06:30.242Z,95243.48
2022-08-12T14:09:15.352Z,95243.69
2022-08-12T14:12:01.237Z,95238.14
2022-08-12T14:14:35.641Z,95254.41
2022-08-12T14:17:05.557Z,95243.62
2022-08-12T14:19:35.274Z,95247.18
2022-08-12T14:22:05.457Z,95250.67
2022-08-12T14:24:40.402Z,95250.05
2022-08-12T14:27:10.401Z,95238.45
2022-08-12T14:30:04.445Z,95242.55
2022-08-12T15:14:18.960Z,95223.86
2022-08-12T15:16:50.002Z,95216.06
2022-08-12T15:20:30.805Z,95179.67
2022-08-12T15:22:37.267Z,95217.33
2022-08-12T15:24:55.571Z,95210.02
2022-08-12T15:28:11.062Z,95204.45
2022-08-12T15:30:16.027Z,95197.67
2022-08-12T15:36:55.715Z,95190.28
2022-08-12T15:39:34.459Z,95188.95
2022-08-12T15:42:08.595Z,95182.77
2022-08-12T15:44:42.903Z,95185.44
2022-08-12T15:48:16.278Z,95186.06
2022-08-12T15:52:27.290Z,95182.81
2022-08-12T15:53:41.054Z,95189.27
2022-08-12T15:56:15.337Z,95193.05
2022-08-12T15:58:48.778Z,95191.44
2022-08-12T16:01:22.455Z,95184.19
2022-08-12T16:03:56.648Z,95189.09
2022-08-12T16:06:50.997Z,95184.14
2022-08-12T16:08:58.005Z,95187.56
2022-08-12T16:11:32.853Z,95191.49
2022-08-12T16:14:03.400Z,95183.29
2022-08-12T16:16:33.914Z,95191.21
2022-08-12T16:34:54.698Z,95181.38
2022-08-12T16:37:21.639Z,95187.95
2022-08-12T16:55:13.023Z,95194.52
2022-08-12T16:56:54.562Z,95195.75
2022-08-12T17:22:46.756Z,95194.92
2022-08-12T17:25:23.446Z,95194.80
2022-08-12T17:32:00.862Z,95189.34
2022-08-12T17:34:17.208Z,95186.45
2022-08-12T17:36:43.370Z,95193.23
2022-08-12T17:39:13.092Z,95200.16
2022-08-12T17:41:57.212Z,95193.66
2022-08-12T17:44:20.925Z,95197.41
2022-08-12T17:46:54.171Z,95197.97
2022-08-12T17:50:01.920Z,95195.86
2022-08-12T17:52:02.716Z,95200.69
2022-08-12T19:00:56.596Z,95237.98
2022-08-12T19:03:39.106Z,95236.78
2022-08-12T19:06:02.525Z,95236.36
2022-08-12T19:08:33.355Z,95238.67
2022-08-12T19:11:27.080Z,95238.92
2022-08-12T19:14:17.698Z,95240.58
2022-08-12T19:16:52.809Z,95234.94
2022-08-12T19:19:21.838Z,95241.88
2022-08-12T19:21:57.027Z,95240.13
2022-08-12T19:37:08.639Z,95239.17
2022-08-12T19:42:31.509Z,95240.38
2022-08-12T19:45:05.650Z,95243.53
2022-08-12T19:47:38.548Z,95242.48
2022-08-12T19:50:20.012Z,95243.95
2022-08-12T19:52:51.051Z,95237.70
2022-08-12T19:55:21.903Z,95240.17
2022-08-12T19:58:01.358Z,95235.19
2022-08-12T20:00:26.564Z,95238.30
2022-08-12T20:02:57.016Z,95239.09
2022-08-12T20:06:04.596Z,95241.97
2022-08-12T20:08:01.074Z,95236.39
2022-08-12T20:10:36.350Z,95234.61
2022-08-12T20:16:01.148Z,95231.98
2022-08-12T20:18:53.596Z,95227.52
2022-08-12T20:21:14.863Z,95223.70
2022-08-12T20:23:59.643Z,95224.15
2022-08-12T20:44:43.434Z,95221.87
2022-08-12T20:47:18.658Z,95217.87
2022-08-12T20:53:14.277Z,95216.28
2022-08-12T21:06:33.572Z,95194.98
2022-08-12T21:09:06.928Z,95225.56
2022-08-12T21:11:38.008Z,95217.97
2022-08-12T21:14:10.575Z,95219.44
2022-08-12T21:16:42.165Z,95220.89
2022-08-12T21:19:22.647Z,95221.50
2022-08-12T21:21:51.879Z,95219.06
2022-08-12T21:24:31.701Z,95202.42
2022-08-12T21:26:56.786Z,95220.48
2022-08-12T21:29:25.583Z,95199.78
2022-08-12T21:32:39.410Z,95222.77
2022-08-12T21:34:29.678Z,95220.49
2022-08-12T21:36:59.463Z,95150.36
2022-08-12T21:40:37.702Z,95218.22
2022-08-12T21:59:07.223Z,95199.11
2022-08-12T22:05:16.843Z,95206.59
2022-08-12T22:07:55.462Z,95200.03
2022-08-12T22:11:24.563Z,95201.95
2022-08-12T22:16:31.103Z,95190.45
2022-08-12T22:19:28.308Z,95190.31
2022-08-12T22:22:01.250Z,95182.41
2022-08-12T22:24:58.565Z,95182.09
2022-08-12T22:28:04.946Z,95176.08
2022-08-12T23:06:55.912Z,95173.89
2022-08-12T23:09:48.988Z,95174.44
2022-08-12T23:30:19.137Z,95151.61
2022-08-12T23:42:21.302Z,95145.28
